sensor_id;sensor_type;location;lat;lon;timestamp;pressure;altitude;pressure_sealevel;temperature
76583;BMP280;65462;52.148;7.940;2022-12-18T00:01:56;102060.50;;;-7.27
76583;BMP280;65462;52.148;7.940;2022-12-18T00:04:23;102064.03;;;-7.28
76583;BMP280;65462;52.148;7.940;2022-12-18T00:06:48;102056.16;;;-7.26
76583;BMP280;65462;52.148;7.940;2022-12-18T00:09:13;102052.81;;;-7.27
76583;BMP280;65462;52.148;7.940;2022-12-18T00:11:39;102047.66;;;-7.27
76583;BMP280;65462;52.148;7.940;2022-12-18T00:14:04;102058.59;;;-7.25
76583;BMP280;65462;52.148;7.940;2022-12-18T00:16:29;102074.13;;;-7.26
76583;BMP280;65462;52.148;7.940;2022-12-18T00:18:58;102057.16;;;-7.27
76583;BMP280;65462;52.148;7.940;2022-12-18T00:21:23;102064.53;;;-7.24
76583;BMP280;65462;52.148;7.940;2022-12-18T00:23:49;102060.50;;;-7.27
76583;BMP280;65462;52.148;7.940;2022-12-18T00:26:18;102062.72;;;-7.32
76583;BMP280;65462;52.148;7.940;2022-12-18T00:28:44;102052.28;;;-7.31
76583;BMP280;65462;52.148;7.940;2022-12-18T00:31:13;102053.25;;;-7.32
76583;BMP280;65462;52.148;7.940;2022-12-18T00:33:39;102060.16;;;-7.32
76583;BMP280;65462;52.148;7.940;2022-12-18T00:36:05;102063.03;;;-7.35
76583;BMP280;65462;52.148;7.940;2022-12-18T00:38:30;102066.91;;;-7.31
76583;BMP280;65462;52.148;7.940;2022-12-18T00:40:55;102050.84;;;-7.33
76583;BMP280;65462;52.148;7.940;2022-12-18T00:43:21;102057.28;;;-7.29
76583;BMP280;65462;52.148;7.940;2022-12-18T00:45:46;102051.34;;;-7.30
76583;BMP280;65462;52.148;7.940;2022-12-18T00:48:11;102058.22;;;-7.30
76583;BMP280;65462;52.148;7.940;2022-12-18T00:50:36;102043.16;;;-7.33
76583;BMP280;65462;52.148;7.940;2022-12-18T00:53:01;102050.22;;;-7.27
76583;BMP280;65462;52.148;7.940;2022-12-18T00:55:27;102045.78;;;-7.25
76583;BMP280;65462;52.148;7.940;2022-12-18T00:57:52;102050.41;;;-7.28
76583;BMP280;65462;52.148;7.940;2022-12-18T01:00:17;102039.47;;;-7.31
76583;BMP280;65462;52.148;7.940;2022-12-18T01:02:43;102046.38;;;-7.31
76583;BMP280;65462;52.148;7.940;2022-12-18T01:05:09;102042.50;;;-7.35
76583;BMP280;65462;52.148;7.940;2022-12-18T01:07:34;102052.47;;;-7.32
76583;BMP280;65462;52.148;7.940;2022-12-18T01:09:59;102056.28;;;-7.36
76583;BMP280;65462;52.148;7.940;2022-12-18T01:12:24;102059.03;;;-7.38
76583;BMP280;65462;52.148;7.940;2022-12-18T01:14:49;102059.19;;;-7.31
76583;BMP280;65462;52.148;7.940;2022-12-18T01:17:15;102058.84;;;-7.36
76583;BMP280;65462;52.148;7.940;2022-12-18T01:19:40;102043.47;;;-7.36
76583;BMP280;65462;52.148;7.940;2022-12-18T01:22:05;102037.38;;;-7.35
76583;BMP280;65462;52.148;7.940;2022-12-18T01:24:30;102040.59;;;-7.33
76583;BMP280;65462;52.148;7.940;2022-12-18T01:26:55;102044.91;;;-7.34
76583;BMP280;65462;52.148;7.940;2022-12-18T01:29:22;102038.34;;;-7.36
76583;BMP280;65462;52.148;7.940;2022-12-18T01:31:47;102040.59;;;-7.33
76583;BMP280;65462;52.148;7.940;2022-12-18T01:34:12;102056.28;;;-7.36
76583;BMP280;65462;52.148;7.940;2022-12-18T01:36:38;102076.00;;;-7.37
76583;BMP280;65462;52.148;7.940;2022-12-18T01:39:08;102056.28;;;-7.36
76583;BMP280;65462;52.148;7.940;2022-12-18T01:41:35;102057.91;;;-7.35
76583;BMP280;65462;52.148;7.940;2022-12-18T01:47:03;102057.09;;;-7.36
76583;BMP280;65462;52.148;7.940;2022-12-18T01:49:28;102045.88;;;-7.35
76583;BMP280;65462;52.148;7.940;2022-12-18T01:51:53;102044.41;;;-7.37
76583;BMP280;65462;52.148;7.940;2022-12-18T01:54:18;102050.81;;;-7.41
76583;BMP280;65462;52.148;7.940;2022-12-18T01:56:43;102055.47;;;-7.37
76583;BMP280;65462;52.148;7.940;2022-12-18T01:59:09;102058.06;;;-7.37
76583;BMP280;65462;52.148;7.940;2022-12-18T02:01:35;102074.75;;;-7.41
76583;BMP280;65462;52.148;7.940;2022-12-18T02:06:46;102067.97;;;-7.42
76583;BMP280;65462;52.148;7.940;2022-12-18T02:09:19;102063.66;;;-7.41
76583;BMP280;65462;52.148;7.940;2022-12-18T02:17:02;102059.53;;;-7.34
76583;BMP280;65462;52.148;7.940;2022-12-18T02:22:17;102053.09;;;-7.38
76583;BMP280;65462;52.148;7.940;2022-12-18T02:24:52;102054.69;;;-7.37
76583;BMP280;65462;52.148;7.940;2022-12-18T02:27:19;102054.22;;;-7.41
76583;BMP280;65462;52.148;7.940;2022-12-18T02:29:53;102048.56;;;-7.44
76583;BMP280;65462;52.148;7.940;2022-12-18T02:32:21;102047.75;;;-7.45
76583;BMP280;65462;52.148;7.940;2022-12-18T02:34:48;102052.72;;;-7.43
76583;BMP280;65462;52.148;7.940;2022-12-18T02:37:15;102053.38;;;-7.41
76583;BMP280;65462;52.148;7.940;2022-12-18T02:39:41;102048.25;;;-7.41
76583;BMP280;65462;52.148;7.940;2022-12-18T02:42:07;102041.41;;;-7.41
76583;BMP280;65462;52.148;7.940;2022-12-18T02:44:43;102046.63;;;-7.42
76583;BMP280;65462;52.148;7.940;2022-12-18T02:47:10;102050.31;;;-7.45
76583;BMP280;65462;52.148;7.940;2022-12-18T02:54:41;102034.47;;;-7.40
76583;BMP280;65462;52.148;7.940;2022-12-18T02:57:54;102031.78;;;-7.39
76583;BMP280;65462;52.148;7.940;2022-12-18T03:00:05;102034.97;;;-7.37
76583;BMP280;65462;52.148;7.940;2022-12-18T03:02:37;102034.00;;;-7.44
76583;BMP280;65462;52.148;7.940;2022-12-18T03:07:46;102025.81;;;-7.39
76583;BMP280;65462;52.148;7.940;2022-12-18T03:10:14;102028.06;;;-7.44
76583;BMP280;65462;52.148;7.940;2022-12-18T03:12:42;102023.06;;;-7.46
76583;BMP280;65462;52.148;7.940;2022-12-18T03:15:09;102026.13;;;-7.42
76583;BMP280;65462;52.148;7.940;2022-12-18T03:17:36;102031.25;;;-7.42
76583;BMP280;65462;52.148;7.940;2022-12-18T03:20:08;102033.69;;;-7.41
76583;BMP280;65462;52.148;7.940;2022-12-18T03:22:34;102041.50;;;-7.42
76583;BMP280;65462;52.148;7.940;2022-12-18T03:25:00;102043.25;;;-7.43
76583;BMP280;65462;52.148;7.940;2022-12-18T03:27:27;102046.94;;;-7.45
76583;BMP280;65462;52.148;7.940;2022-12-18T03:30:02;102038.31;;;-7.44
76583;BMP280;65462;52.148;7.940;2022-12-18T03:33:18;102042.63;;;-7.45
76583;BMP280;65462;52.148;7.940;2022-12-18T03:35:20;102051.75;;;-7.42
76583;BMP280;65462;52.148;7.940;2022-12-18T03:37:46;102041.84;;;-7.37
76583;BMP280;65462;52.148;7.940;2022-12-18T03:40:11;102041.41;;;-7.41
76583;BMP280;65462;52.148;7.940;2022-12-18T03:42:45;102046.81;;;-7.44
76583;BMP280;65462;52.148;7.940;2022-12-18T03:47:43;102034.00;;;-7.44
76583;BMP280;65462;52.148;7.940;2022-12-18T03:50:14;102031.56;;;-7.45
76583;BMP280;65462;52.148;7.940;2022-12-18T03:55:09;102031.56;;;-7.45
76583;BMP280;65462;52.148;7.940;2022-12-18T03:57:35;102034.75;;;-7.43
76583;BMP280;65462;52.148;7.940;2022-12-18T04:00:09;102028.38;;;-7.47
76583;BMP280;65462;52.148;7.940;2022-12-18T04:02:35;102028.19;;;-7.46
76583;BMP280;65462;52.148;7.940;2022-12-18T04:05:03;102011.84;;;-7.45
76583;BMP280;65462;52.148;7.940;2022-12-18T04:07:29;102018.88;;;-7.47
76583;BMP280;65462;52.148;7.940;2022-12-18T04:09:55;102025.94;;;-7.49
76583;BMP280;65462;52.148;7.940;2022-12-18T04:12:23;102043.59;;;-7.46
76583;BMP280;65462;52.148;7.940;2022-12-18T04:14:48;102038.63;;;-7.47
76583;BMP280;65462;52.148;7.940;2022-12-18T04:17:14;102023.56;;;-7.50
76583;BMP280;65462;52.148;7.940;2022-12-18T04:19:39;102037.00;;;-7.48
76583;BMP280;65462;52.148;7.940;2022-12-18T04:22:04;102029.81;;;-7.45
76583;BMP280;65462;52.148;7.940;2022-12-18T04:24:29;102042.16;;;-7.48
76583;BMP280;65462;52.148;7.940;2022-12-18T04:26:54;102027.88;;;-7.51
76583;BMP280;65462;52.148;7.940;2022-12-18T04:29:19;102029.47;;;-7.50
76583;BMP280;65462;52.148;7.940;2022-12-18T04:31:45;102037.16;;;-7.50
76583;BMP280;65462;52.148;7.940;2022-12-18T04:34:10;102026.94;;;-7.42
76583;BMP280;65462;52.148;7.940;2022-12-18T04:36:35;102034.13;;;-7.45
76583;BMP280;65462;52.148;7.940;2022-12-18T04:39:00;102039.91;;;-7.43
76583;BMP280;65462;52.148;7.940;2022-12-18T04:41:25;102041.50;;;-7.50
76583;BMP280;65462;52.148;7.940;2022-12-18T04:43:51;102033.97;;;-7.52
76583;BMP280;65462;52.148;7.940;2022-12-18T04:46:16;102033.81;;;-7.50
76583;BMP280;65462;52.148;7.940;2022-12-18T04:48:41;102028.50;;;-7.49
76583;BMP280;65462;52.148;7.940;2022-12-18T04:51:06;102019.06;;;-7.48
76583;BMP280;65462;52.148;7.940;2022-12-18T04:53:32;102011.00;;;-7.53
76583;BMP280;65462;52.148;7.940;2022-12-18T04:56:04;102014.88;;;-7.49
76583;BMP280;65462;52.148;7.940;2022-12-18T04:58:29;102014.56;;;-7.46
76583;BMP280;65462;52.148;7.940;2022-12-18T05:00:55;102013.13;;;-7.49
76583;BMP280;65462;52.148;7.940;2022-12-18T05:03:20;102008.94;;;-7.50
76583;BMP280;65462;52.148;7.940;2022-12-18T05:05:45;102007.19;;;-7.49
76583;BMP280;65462;52.148;7.940;2022-12-18T05:08:13;102009.75;;;-7.49
76583;BMP280;65462;52.148;7.940;2022-12-18T05:10:39;102007.38;;;-7.51
76583;BMP280;65462;52.148;7.940;2022-12-18T05:13:04;102007.19;;;-7.49
76583;BMP280;65462;52.148;7.940;2022-12-18T05:15:30;102020.00;;;-7.49
76583;BMP280;65462;52.148;7.940;2022-12-18T05:17:56;102016.50;;;-7.48
76583;BMP280;65462;52.148;7.940;2022-12-18T05:20:21;102017.44;;;-7.49
76583;BMP280;65462;52.148;7.940;2022-12-18T05:22:46;102012.59;;;-7.52
76583;BMP280;65462;52.148;7.940;2022-12-18T05:25:11;102012.50;;;-7.51
76583;BMP280;65462;52.148;7.940;2022-12-18T05:27:36;102003.50;;;-7.47
76583;BMP280;65462;52.148;7.940;2022-12-18T05:30:02;102000.31;;;-7.49
76583;BMP280;65462;52.148;7.940;2022-12-18T05:32:27;102011.38;;;-7.48
76583;BMP280;65462;52.148;7.940;2022-12-18T05:34:52;102006.88;;;-7.46
76583;BMP280;65462;52.148;7.940;2022-12-18T05:37:17;102003.50;;;-7.47
76583;BMP280;65462;52.148;7.940;2022-12-18T05:39:43;102011.38;;;-7.48
76583;BMP280;65462;52.148;7.940;2022-12-18T05:42:08;102000.63;;;-7.52
76583;BMP280;65462;52.148;7.940;2022-12-18T05:44:33;102007.38;;;-7.51
76583;BMP280;65462;52.148;7.940;2022-12-18T05:46:59;102006.56;;;-7.51
76583;BMP280;65462;52.148;7.940;2022-12-18T05:49:24;102006.66;;;-7.53
76583;BMP280;65462;52.148;7.940;2022-12-18T05:51:49;102011.97;;;-7.54
76583;BMP280;65462;52.148;7.940;2022-12-18T05:54:14;102016.94;;;-7.53
76583;BMP280;65462;52.148;7.940;2022-12-18T05:56:39;102020.31;;;-7.52
76583;BMP280;65462;52.148;7.940;2022-12-18T05:59:04;102026.25;;;-7.52
76583;BMP280;65462;52.148;7.940;2022-12-18T06:01:30;102024.50;;;-7.51
76583;BMP280;65462;52.148;7.940;2022-12-18T06:03:55;102034.75;;;-7.51
76583;BMP280;65462;52.148;7.940;2022-12-18T06:06:21;102030.56;;;-7.52
76583;BMP280;65462;52.148;7.940;2022-12-18T06:08:47;102035.41;;;-7.49
76583;BMP280;65462;52.148;7.940;2022-12-18T06:11:13;102037.34;;;-7.51
76583;BMP280;65462;52.148;7.940;2022-12-18T06:13:38;102043.09;;;-7.49
76583;BMP280;65462;52.148;7.940;2022-12-18T06:16:04;102040.38;;;-7.48
76583;BMP280;65462;52.148;7.940;2022-12-18T06:18:29;102046.94;;;-7.45
76583;BMP280;65462;52.148;7.940;2022-12-18T06:20:55;102041.81;;;-7.45
76583;BMP280;65462;52.148;7.940;2022-12-18T06:23:20;102054.97;;;-7.48
76583;BMP280;65462;52.148;7.940;2022-12-18T06:25:46;102043.75;;;-7.47
76583;BMP280;65462;52.148;7.940;2022-12-18T06:28:11;102053.84;;;-7.46
76583;BMP280;65462;52.148;7.940;2022-12-18T06:30:36;102048.06;;;-7.48
76583;BMP280;65462;52.148;7.940;2022-12-18T06:33:01;102067.47;;;-7.45
76583;BMP280;65462;52.148;7.940;2022-12-18T06:35:26;102059.78;;;-7.45
76583;BMP280;65462;52.148;7.940;2022-12-18T06:37:52;102081.75;;;-7.43
76583;BMP280;65462;52.148;7.940;2022-12-18T06:40:17;102067.16;;;-7.42
76583;BMP280;65462;52.148;7.940;2022-12-18T06:42:42;102056.91;;;-7.42
76583;BMP280;65462;52.148;7.940;2022-12-18T06:45:07;102062.97;;;-7.43
76583;BMP280;65462;52.148;7.940;2022-12-18T06:47:32;102063.97;;;-7.44
76583;BMP280;65462;52.148;7.940;2022-12-18T06:49:58;102075.03;;;-7.44
76583;BMP280;65462;52.148;7.940;2022-12-18T06:52:23;102069.22;;;-7.46
76583;BMP280;65462;52.148;7.940;2022-12-18T06:54:48;102083.34;;;-7.42
76583;BMP280;65462;52.148;7.940;2022-12-18T06:57:13;102071.19;;;-7.40
76583;BMP280;65462;52.148;7.940;2022-12-18T06:59:38;102065.53;;;-7.43
76583;BMP280;65462;52.148;7.940;2022-12-18T07:02:04;102068.91;;;-7.43
76583;BMP280;65462;52.148;7.940;2022-12-18T07:04:29;102059.34;;;-7.41
76583;BMP280;65462;52.148;7.940;2022-12-18T07:06:54;102063.19;;;-7.37
76583;BMP280;65462;52.148;7.940;2022-12-18T07:09:20;102063.19;;;-7.37
76583;BMP280;65462;52.148;7.940;2022-12-18T07:11:45;102060.78;;;-7.38
76583;BMP280;65462;52.148;7.940;2022-12-18T07:14:10;102054.69;;;-7.37
76583;BMP280;65462;52.148;7.940;2022-12-18T07:16:35;102045.03;;;-7.43
76583;BMP280;65462;52.148;7.940;2022-12-18T07:19:00;102051.47;;;-7.39
76583;BMP280;65462;52.148;7.940;2022-12-18T07:21:25;102045.41;;;-7.38
76583;BMP280;65462;52.148;7.940;2022-12-18T07:23:51;102042.84;;;-7.38
76583;BMP280;65462;52.148;7.940;2022-12-18T07:26:16;102048.78;;;-7.38
76583;BMP280;65462;52.148;7.940;2022-12-18T07:28:42;102052.13;;;-7.37
76583;BMP280;65462;52.148;7.940;2022-12-18T07:31:11;102075.06;;;-7.36
76583;BMP280;65462;52.148;7.940;2022-12-18T07:33:37;102046.84;;;-7.36
76583;BMP280;65462;52.148;7.940;2022-12-18T07:36:03;102046.97;;;-7.37
76583;BMP280;65462;52.148;7.940;2022-12-18T07:38:29;102047.66;;;-7.35
76583;BMP280;65462;52.148;7.940;2022-12-18T07:40:54;102057.72;;;-7.34
76583;BMP280;65462;52.148;7.940;2022-12-18T07:43:24;102047.84;;;-7.28
76583;BMP280;65462;52.148;7.940;2022-12-18T07:45:49;102040.16;;;-7.28
76583;BMP280;65462;52.148;7.940;2022-12-18T07:48:15;102036.75;;;-7.29
76583;BMP280;65462;52.148;7.940;2022-12-18T07:50:40;102043.53;;;-7.28
76583;BMP280;65462;52.148;7.940;2022-12-18T07:53:05;102033.88;;;-7.26
76583;BMP280;65462;52.148;7.940;2022-12-18T07:55:31;102032.56;;;-7.30
76583;BMP280;65462;52.148;7.940;2022-12-18T07:57:56;102027.59;;;-7.40
76583;BMP280;65462;52.148;7.940;2022-12-18T08:00:21;102015.56;;;-7.39
76583;BMP280;65462;52.148;7.940;2022-12-18T08:02:47;102017.06;;;-7.28
76583;BMP280;65462;52.148;7.940;2022-12-18T08:05:12;102011.41;;;-7.32
76583;BMP280;65462;52.148;7.940;2022-12-18T08:07:38;102009.16;;;-7.35
76583;BMP280;65462;52.148;7.940;2022-12-18T08:10:03;102004.34;;;-7.30
76583;BMP280;65462;52.148;7.940;2022-12-18T08:12:28;102003.09;;;-7.26
76583;BMP280;65462;52.148;7.940;2022-12-18T08:14:54;101999.41;;;-7.23
76583;BMP280;65462;52.148;7.940;2022-12-18T08:17:19;101979.19;;;-7.35
76583;BMP280;65462;52.148;7.940;2022-12-18T08:19:44;101999.09;;;-7.20
76583;BMP280;65462;52.148;7.940;2022-12-18T08:22:09;102001.50;;;-7.19
76583;BMP280;65462;52.148;7.940;2022-12-18T08:24:35;102003.91;;;-7.17
76583;BMP280;65462;52.148;7.940;2022-12-18T08:27:00;102009.88;;;-7.17
76583;BMP280;65462;52.148;7.940;2022-12-18T08:29:25;102012.28;;;-7.15
76583;BMP280;65462;52.148;7.940;2022-12-18T08:31:50;102024.63;;;-7.11
76583;BMP280;65462;52.148;7.940;2022-12-18T08:34:15;102019.19;;;-7.00
76583;BMP280;65462;52.148;7.940;2022-12-18T08:36:41;102011.19;;;-6.97
76583;BMP280;65462;52.148;7.940;2022-12-18T08:39:06;102022.91;;;-6.86
76583;BMP280;65462;52.148;7.940;2022-12-18T08:41:31;102026.28;;;-6.77
76583;BMP280;65462;52.148;7.940;2022-12-18T08:43:56;102029.00;;;-6.71
76583;BMP280;65462;52.148;7.940;2022-12-18T08:46:41;102025.81;;;-6.65
76583;BMP280;65462;52.148;7.940;2022-12-18T08:49:07;102014.56;;;-6.56
76583;BMP280;65462;52.148;7.940;2022-12-18T08:51:33;102009.25;;;-6.46
76583;BMP280;65462;52.148;7.940;2022-12-18T08:53:58;102004.78;;;-6.36
76583;BMP280;65462;52.148;7.940;2022-12-18T08:56:23;101995.44;;;-6.29
76583;BMP280;65462;52.148;7.940;2022-12-18T08:58:51;102002.81;;;-6.18
76583;BMP280;65462;52.148;7.940;2022-12-18T09:01:16;101996.69;;;-6.09
76583;BMP280;65462;52.148;7.940;2022-12-18T09:03:41;101993.78;;;-5.98
76583;BMP280;65462;52.148;7.940;2022-12-18T09:06:06;101994.53;;;-5.89
76583;BMP280;65462;52.148;7.940;2022-12-18T09:08:35;101996.94;;;-5.79
76583;BMP280;65462;52.148;7.940;2022-12-18T09:11:01;101984.84;;;-5.71
76583;BMP280;65462;52.148;7.940;2022-12-18T09:13:26;101984.63;;;-5.61
76583;BMP280;65462;52.148;7.940;2022-12-18T09:15:52;101990.38;;;-5.51
76583;BMP280;65462;52.148;7.940;2022-12-18T09:18:19;101996.25;;;-5.42
76583;BMP280;65462;52.148;7.940;2022-12-18T09:20:44;101991.91;;;-5.34
76583;BMP280;65462;52.148;7.940;2022-12-18T09:23:10;101996.16;;;-5.26
76583;BMP280;65462;52.148;7.940;2022-12-18T09:25:36;102003.69;;;-5.17
76583;BMP280;65462;52.148;7.940;2022-12-18T09:28:22;102003.44;;;-5.07
76583;BMP280;65462;52.148;7.940;2022-12-18T09:30:47;102005.97;;;-4.99
76583;BMP280;65462;52.148;7.940;2022-12-18T09:33:13;102004.78;;;-4.88
76583;BMP280;65462;52.148;7.940;2022-12-18T09:35:39;102018.56;;;-4.81
76583;BMP280;65462;52.148;7.940;2022-12-18T09:38:04;102016.88;;;-4.74
76583;BMP280;65462;52.148;7.940;2022-12-18T09:40:32;102016.84;;;-4.66
76583;BMP280;65462;52.148;7.940;2022-12-18T09:42:59;102019.16;;;-4.57
76583;BMP280;65462;52.148;7.940;2022-12-18T09:45:25;102019.88;;;-4.48
76583;BMP280;65462;52.148;7.940;2022-12-18T09:47:51;102028.69;;;-4.42
76583;BMP280;65462;52.148;7.940;2022-12-18T09:52:43;102022.94;;;-4.30
76583;BMP280;65462;52.148;7.940;2022-12-18T09:55:11;102017.09;;;-4.24
76583;BMP280;65462;52.148;7.940;2022-12-18T09:57:39;102017.16;;;-4.17
76583;BMP280;65462;52.148;7.940;2022-12-18T10:00:08;102018.88;;;-4.10
76583;BMP280;65462;52.148;7.940;2022-12-18T10:02:36;102004.28;;;-4.03
76583;BMP280;65462;52.148;7.940;2022-12-18T10:05:05;102007.72;;;-3.95
76583;BMP280;65462;52.148;7.940;2022-12-18T10:08:15;101990.22;;;-3.85
76583;BMP280;65462;52.148;7.940;2022-12-18T10:10:26;101963.31;;;-3.76
76583;BMP280;65462;52.148;7.940;2022-12-18T10:15:24;101960.50;;;-3.60
76583;BMP280;65462;52.148;7.940;2022-12-18T10:18:42;101938.75;;;-3.51
76583;BMP280;65462;52.148;7.940;2022-12-18T10:20:42;101931.09;;;-3.44
76583;BMP280;65462;52.148;7.940;2022-12-18T10:28:17;101930.25;;;-3.24
76583;BMP280;65462;52.148;7.940;2022-12-18T10:30:43;101939.25;;;-3.20
76583;BMP280;65462;52.148;7.940;2022-12-18T10:33:12;101938.50;;;-3.14
76583;BMP280;65462;52.148;7.940;2022-12-18T10:35:39;101956.66;;;-3.07
76583;BMP280;65462;52.148;7.940;2022-12-18T10:40:30;101935.44;;;-2.96
76583;BMP280;65462;52.148;7.940;2022-12-18T10:45:29;101929.16;;;-2.87
76583;BMP280;65462;52.148;7.940;2022-12-18T10:47:54;101916.47;;;-2.82
76583;BMP280;65462;52.148;7.940;2022-12-18T10:50:24;101910.13;;;-2.79
76583;BMP280;65462;52.148;7.940;2022-12-18T10:52:54;101907.94;;;-2.76
76583;BMP280;65462;52.148;7.940;2022-12-18T10:55:19;101907.56;;;-2.73
76583;BMP280;65462;52.148;7.940;2022-12-18T10:57:44;101899.44;;;-2.70
76583;BMP280;65462;52.148;7.940;2022-12-18T11:00:26;101882.94;;;-2.69
76583;BMP280;65462;52.148;7.940;2022-12-18T11:02:52;101864.44;;;-2.66
76583;BMP280;65462;52.148;7.940;2022-12-18T11:05:30;101859.28;;;-2.66
76583;BMP280;65462;52.148;7.940;2022-12-18T11:07:56;101859.34;;;-2.59
76583;BMP280;65462;52.148;7.940;2022-12-18T11:10:25;101867.28;;;-2.54
76583;BMP280;65462;52.148;7.940;2022-12-18T11:12:51;101875.28;;;-2.49
76583;BMP280;65462;52.148;7.940;2022-12-18T11:15:26;101871.50;;;-2.46
76583;BMP280;65462;52.148;7.940;2022-12-18T11:17:52;101863.94;;;-2.41
76583;BMP280;65462;52.148;7.940;2022-12-18T11:23:01;101862.00;;;-2.33
76583;BMP280;65462;52.148;7.940;2022-12-18T11:25:27;101858.00;;;-2.29
76583;BMP280;65462;52.148;7.940;2022-12-18T11:28:00;101861.03;;;-2.25
76583;BMP280;65462;52.148;7.940;2022-12-18T11:30:30;101856.28;;;-2.22
76583;BMP280;65462;52.148;7.940;2022-12-18T11:38:06;101833.00;;;-2.09
76583;BMP280;65462;52.148;7.940;2022-12-18T11:40:36;101824.66;;;-2.04
76583;BMP280;65462;52.148;7.940;2022-12-18T11:45:53;101821.28;;;-1.98
76583;BMP280;65462;52.148;7.940;2022-12-18T11:48:33;101814.91;;;-1.95
76583;BMP280;65462;52.148;7.940;2022-12-18T11:51:00;101817.66;;;-1.90
76583;BMP280;65462;52.148;7.940;2022-12-18T11:56:30;101806.34;;;-1.83
76583;BMP280;65462;52.148;7.940;2022-12-18T12:08:57;101809.34;;;-1.66
76583;BMP280;65462;52.148;7.940;2022-12-18T12:19:20;101783.22;;;-1.58
76583;BMP280;65462;52.148;7.940;2022-12-18T12:24:37;101783.41;;;-1.53
76583;BMP280;65462;52.148;7.940;2022-12-18T12:29:36;101791.38;;;-1.48
76583;BMP280;65462;52.148;7.940;2022-12-18T12:32:11;101794.56;;;-1.46
76583;BMP280;65462;52.148;7.940;2022-12-18T12:34:45;101791.38;;;-1.48
76583;BMP280;65462;52.148;7.940;2022-12-18T12:39:39;101772.22;;;-1.40
76583;BMP280;65462;52.148;7.940;2022-12-18T12:42:10;101778.78;;;-1.38
76583;BMP280;65462;52.148;7.940;2022-12-18T12:44:55;101769.81;;;-1.35
76583;BMP280;65462;52.148;7.940;2022-12-18T12:49:47;101752.28;;;-1.33
76583;BMP280;65462;52.148;7.940;2022-12-18T12:54:57;101744.94;;;-1.30
76583;BMP280;65462;52.148;7.940;2022-12-18T12:57:45;101735.13;;;-1.28
76583;BMP280;65462;52.148;7.940;2022-12-18T13:00:09;101729.97;;;-1.28
76583;BMP280;65462;52.148;7.940;2022-12-18T13:02:42;101725.97;;;-1.24
76583;BMP280;65462;52.148;7.940;2022-12-18T13:05:14;101726.75;;;-1.23
76583;BMP280;65462;52.148;7.940;2022-12-18T13:10:30;101728.34;;;-1.22
76583;BMP280;65462;52.148;7.940;2022-12-18T13:20:42;101709.78;;;-1.19
76583;BMP280;65462;52.148;7.940;2022-12-18T13:25:48;101687.63;;;-1.15
76583;BMP280;65462;52.148;7.940;2022-12-18T13:28:14;101688.63;;;-1.16
76583;BMP280;65462;52.148;7.940;2022-12-18T13:38:20;101675.66;;;-1.16
76583;BMP280;65462;52.148;7.940;2022-12-18T13:45:46;101677.22;;;-1.09
76583;BMP280;65462;52.148;7.940;2022-12-18T13:48:14;101675.63;;;-1.10
76583;BMP280;65462;52.148;7.940;2022-12-18T13:50:40;101666.06;;;-1.09
76583;BMP280;65462;52.148;7.940;2022-12-18T13:53:05;101671.63;;;-1.06
76583;BMP280;65462;52.148;7.940;2022-12-18T13:55:31;101665.47;;;-1.05
76583;BMP280;65462;52.148;7.940;2022-12-18T13:58:03;101666.25;;;-1.04
76583;BMP280;65462;52.148;7.940;2022-12-18T14:00:29;101665.47;;;-1.05
76583;BMP280;65462;52.148;7.940;2022-12-18T14:02:54;101674.81;;;-1.03
76583;BMP280;65462;52.148;7.940;2022-12-18T14:05:27;101669.25;;;-1.07
76583;BMP280;65462;52.148;7.940;2022-12-18T14:07:53;101670.84;;;-1.06
76583;BMP280;65462;52.148;7.940;2022-12-18T14:10:18;101670.03;;;-1.07
76583;BMP280;65462;52.148;7.940;2022-12-18T14:12:45;101670.03;;;-1.07
76583;BMP280;65462;52.148;7.940;2022-12-18T14:17:50;101656.31;;;-1.07
76583;BMP280;65462;52.148;7.940;2022-12-18T14:20:16;101670.25;;;-1.08
76583;BMP280;65462;52.148;7.940;2022-12-18T14:22:42;101657.06;;;-1.07
76583;BMP280;65462;52.148;7.940;2022-12-18T14:25:14;101649.91;;;-1.05
76583;BMP280;65462;52.148;7.940;2022-12-18T14:27:47;101647.50;;;-1.06
76583;BMP280;65462;52.148;7.940;2022-12-18T14:30:32;101643.34;;;-1.07
76583;BMP280;65462;52.148;7.940;2022-12-18T14:33:01;101640.94;;;-1.09
76583;BMP280;65462;52.148;7.940;2022-12-18T14:35:27;101632.19;;;-1.08
76583;BMP280;65462;52.148;7.940;2022-12-18T14:37:52;101640.94;;;-1.09
76583;BMP280;65462;52.148;7.940;2022-12-18T14:40:17;101630.56;;;-1.09
76583;BMP280;65462;52.148;7.940;2022-12-18T14:42:42;101632.59;;;-1.11
76583;BMP280;65462;52.148;7.940;2022-12-18T14:47:52;101603.72;;;-1.14
76583;BMP280;65462;52.148;7.940;2022-12-18T14:50:17;101606.06;;;-1.13
76583;BMP280;65462;52.148;7.940;2022-12-18T14:52:42;101606.69;;;-1.11
76583;BMP280;65462;52.148;7.940;2022-12-18T14:55:14;101599.91;;;-1.12
76583;BMP280;65462;52.148;7.940;2022-12-18T14:57:39;101602.50;;;-1.12
76583;BMP280;65462;52.148;7.940;2022-12-18T15:00:26;101606.06;;;-1.13
76583;BMP280;65462;52.148;7.940;2022-12-18T15:02:55;101607.53;;;-1.17
76583;BMP280;65462;52.148;7.940;2022-12-18T15:05:30;101612.09;;;-1.19
76583;BMP280;65462;52.148;7.940;2022-12-18T15:07:57;101606.72;;;-1.17
76583;BMP280;65462;52.148;7.940;2022-12-18T15:10:23;101602.34;;;-1.17
76583;BMP280;65462;52.148;7.940;2022-12-18T15:17:58;101572.44;;;-1.19
76583;BMP280;65462;52.148;7.940;2022-12-18T15:20:27;101579.22;;;-1.18
76583;BMP280;65462;52.148;7.940;2022-12-18T15:22:52;101573.22;;;-1.19
76583;BMP280;65462;52.148;7.940;2022-12-18T15:25:25;101570.44;;;-1.17
76583;BMP280;65462;52.148;7.940;2022-12-18T15:27:52;101563.66;;;-1.18
76583;BMP280;65462;52.148;7.940;2022-12-18T15:30:19;101568.41;;;-1.15
76583;BMP280;65462;52.148;7.940;2022-12-18T15:32:44;101569.41;;;-1.16
76583;BMP280;65462;52.148;7.940;2022-12-18T15:37:38;101548.69;;;-1.16
76583;BMP280;65462;52.148;7.940;2022-12-18T15:40:03;101550.50;;;-1.17
76583;BMP280;65462;52.148;7.940;2022-12-18T15:42:29;101550.13;;;-1.20
76583;BMP280;65462;52.148;7.940;2022-12-18T15:45:12;101543.72;;;-1.18
76583;BMP280;65462;52.148;7.940;2022-12-18T15:47:38;101535.38;;;-1.20
76583;BMP280;65462;52.148;7.940;2022-12-18T15:50:03;101544.72;;;-1.19
76583;BMP280;65462;52.148;7.940;2022-12-18T15:52:28;101544.53;;;-1.17
76583;BMP280;65462;52.148;7.940;2022-12-18T15:54:53;101548.91;;;-1.18
76583;BMP280;65462;52.148;7.940;2022-12-18T15:57:37;101538.53;;;-1.18
76583;BMP280;65462;52.148;7.940;2022-12-18T16:00:03;101529.78;;;-1.17
76583;BMP280;65462;52.148;7.940;2022-12-18T16:02:28;101529.78;;;-1.17